Latest Coastal Weather Observations for Wadeye (Port Keats)

IDD60701

Issued at 7:45 am CST Saturday 30 August 2014 (issued every 10 minutes, with the page automatically refreshed every 10 minutes)

About coastal observations | Map of coastal stations | Coastal observations for NT | Marine services | Other Formats
Station Details ID: 014948 Name: PORT KEATS AIRPORT Lat: -14.25 Lon: 129.53 Height: 28.0 m
Data from the previous 72 hours. | See also: Recent months at Wadeye (Port Keats)
Date/Time
CST
Temp

°C
Wind Pressure Rain
since 9am
mm
Weather Cloud Vis
km
Sea
Height
m
Swell
Dir
 
Speed
knots
Gust
knots
hPa Trend Height
m
Period
s
Dir
30/07:30am 21.9 SSE 9 11 1015.1 - 0.0 - - - - - - -
30/07:00am 21.4 SE 9 11 1014.7 - 0.0 - - - - - - -
30/06:30am 19.7 SSE 7 10 1014.5 - 0.0 - - - - - - -
30/06:00am 17.3 SSE 6 9 1014.0 - 0.0 - - - - - - -
30/05:30am 15.9 SSE 6 7 1013.9 - 0.0 - - - - - - -
30/05:00am 12.1 SSW 1 5 1013.8 - 0.0 - - - - - - -
30/04:30am 12.1 CALM 0 0 1013.7 - 0.0 - - - - - - -
30/04:00am 12.0 SSW 4 4 1013.7 - 0.0 - - - - - - -
30/03:30am 12.7 CALM 0 0 1013.8 - 0.0 - - - - - - -
30/03:00am 13.5 CALM 0 1 1013.8 - 0.0 - - - - - - -
30/02:30am 13.8 CALM 0 4 1014.2 - 0.0 - - - - - - -
30/02:00am 15.0 SSE 2 4 1014.4 - 0.0 - - - - - - -
30/01:30am 14.4 SSW 4 6 1014.4 - 0.0 - - - - - - -
30/01:00am 15.0 CALM 0 0 1014.4 - 0.0 - - - - - - -
30/12:30am 15.3 S 2 4 1014.5 - 0.0 - - - - - - -
30/12:00am 15.2 SSW 0 3 1014.3 - 0.0 - - - - - - -
 
Date/Time
CST
Temp

°C
Wind Pressure Rain
since 9am
mm
Weather Cloud Vis
km
Sea
Height
m
Swell
Dir
 
Speed
knots
Gust
knots
hPa Trend Height
m
Period
s
Dir
29/11:30pm 15.6 SSW 3 4 1014.5 - 0.0 - - - - - - -
29/11:00pm 15.5 SSW 4 5 1014.4 - 0.0 - - - - - - -
29/10:30pm 16.6 CALM 0 0 1014.4 - 0.0 - - - - - - -
29/10:00pm 17.5 S 4 5 1014.4 - 0.0 - - - - - - -
29/09:30pm 18.5 S 3 4 1014.2 - 0.0 - - - - - - -
29/09:00pm 19.1 CALM 0 0 1013.7 - 0.0 - - - - - - -
29/08:30pm 20.3 SW 3 4 1013.8 - 0.0 - - - - - - -
29/08:00pm 21.8 WSW 3 5 1013.6 - 0.0 - - - - - - -
29/07:30pm 23.0 W 4 5 1013.4 - 0.0 - - - - - - -
29/07:00pm 24.5 WNW 4 6 1013.2 - 0.0 - - - - - - -
29/06:30pm 26.3 WNW 5 7 1013.0 - 0.0 - - - - - - -
29/06:00pm 28.3 NW 6 9 1012.6 - 0.0 - - - - - - -
29/05:30pm 29.5 NW 7 9 1012.6 - 0.0 - - - - - - -
29/05:00pm 29.4 WNW 6 9 1012.4 - 0.0 - - - - - - -
29/04:30pm 30.0 NW 8 11 1012.4 - 0.0 - - - - - - -
29/04:00pm 29.8 WNW 7 11 1012.5 - 0.0 - - - - - - -
29/03:30pm 30.2 NW 9 13 1012.5 - 0.0 - - - - - - -
29/03:00pm 30.3 NW 10 13 1012.6 - 0.0 - - - - - - -
29/02:30pm 32.9 E 5 9 1013.0 - 0.0 - - - - - - -
29/02:00pm 31.9 SE 10 13 1013.5 - 0.0 - - - - - - -
29/01:30pm 31.9 ENE 8 14 1013.9 - 0.0 - - - - - - -
29/01:00pm 31.8 E 8 13 1014.7 - 0.0 - - - - - - -
29/12:30pm 30.9 ESE 7 12 1015.1 - 0.0 - - - - - - -
29/12:00pm 30.5 E 8 14 1015.5 - 0.0 - - - - - - -
29/11:30am 30.1 E 13 18 1015.9 - 0.0 - - - - - - -
29/11:00am 29.3 E 10 16 1016.2 - 0.0 - - - - - - -
29/10:30am 28.7 ESE 9 12 1016.5 - 0.0 - - - - - - -
29/10:00am 27.8 ESE 9 14 1016.6 - 0.0 - - - - - - -
29/09:30am 25.8 ESE 7 12 1016.4 - 0.0 - - - - - - -
29/09:00am 24.2 ESE 8 13 1016.0 - 0.0 - - - - - - -
29/08:30am 23.0 SE 9 13 1015.9 - 0.0 - - - - - - -
29/08:00am 21.9 SE 9 13 1015.5 - 0.0 - - - - - - -
29/07:30am 21.1 SE 9 13 1015.0 - 0.0 - - - - - - -
29/07:00am 20.5 SE 8 11 1014.8 - 0.0 - - - - - - -
29/06:30am 20.9 SE 8 11 1014.6 - 0.0 - - - - - - -
29/06:00am 21.2 SE 8 11 1014.2 - 0.0 - - - - - - -
29/05:30am 16.4 SSE 6 7 1014.2 - 0.0 - - - - - - -
29/05:00am 18.3 SSE 6 9 1014.1 - 0.0 - - - - - - -
29/04:30am 21.8 SE 8 11 1014.2 - 0.0 - - - - - - -
29/04:19am 21.2 SE 7 9 1014.1 - 0.0 - - - - - - -
29/04:00am 15.4 S 4 6 1013.9 - 0.0 - - - - - - -
29/03:30am 15.2 S 5 7 1013.6 - 0.0 - - - - - - -
29/03:00am 14.5 S 4 5 1013.3 - 0.0 - - - - - - -
29/02:30am 17.7 S 5 7 1013.5 - 0.0 - - - - - - -
29/02:00am 18.2 SSW 6 8 1013.7 - 0.0 - - - - - - -
29/01:30am 18.7 S 5 7 1013.8 - 0.0 - - - - - - -
29/01:00am 18.6 S 5 6 1013.9 - 0.0 - - - - - - -
29/12:30am 18.7 S 5 6 1014.1 - 0.0 - - - - - - -
29/12:00am 17.3 S 4 6 1014.0 - 0.0 - - - - - - -
 
Date/Time
CST
Temp

°C
Wind Pressure Rain
since 9am
mm
Weather Cloud Vis
km
Sea
Height
m
Swell
Dir
 
Speed
knots
Gust
knots
hPa Trend Height
m
Period
s
Dir
28/11:30pm 16.8 S 4 6 1014.3 - 0.0 - - - - - - -
28/11:00pm 16.0 S 4 5 1014.4 - 0.0 - - - - - - -
28/10:30pm 16.4 S 5 6 1014.4 - 0.0 - - - - - - -
28/10:00pm 16.4 SSW 4 5 1014.4 - 0.0 - - - - - - -
28/09:30pm 17.8 S 1 5 1014.4 - 0.0 - - - - - - -
28/09:00pm 19.5 CALM 0 0 1014.1 - 0.0 - - - - - - -
28/08:30pm 21.9 SSE 2 3 1014.0 - 0.0 - - - - - - -
28/08:00pm 22.6 SSW 4 5 1013.7 - 0.0 - - - - - - -
28/07:30pm 25.2 SSW 4 5 1013.3 - 0.0 - - - - - - -
28/07:00pm 26.8 S 1 4 1013.1 - 0.0 - - - - - - -
28/06:30pm 28.4 SSW 5 8 1012.5 - 0.0 - - - - - - -
28/06:00pm 29.9 S 6 14 1011.9 - 0.0 - - - - - - -
28/05:30pm 31.1 S 7 11 1012.0 - 0.0 - - - - - - -
28/05:00pm 31.5 SSE 7 11 1011.9 - 0.0 - - - - - - -
28/04:30pm 31.8 SE 8 11 1011.9 - 0.0 - - - - - - -
28/04:00pm 31.5 SSE 9 16 1011.9 - 0.0 - - - - - - -
28/03:30pm 31.8 ESE 8 13 1012.2 - 0.0 - - - - - - -
28/03:00pm 31.9 ESE 8 14 1012.3 - 0.0 - - - - - - -
28/02:30pm 31.7 ESE 6 13 1012.7 - 0.0 - - - - - - -
28/02:00pm 31.4 ESE 7 14 1013.2 - 0.0 - - - - - - -
28/01:30pm 31.2 E 9 13 1013.8 - 0.0 - - - - - - -
28/01:00pm 31.0 ESE 11 18 1014.3 - 0.0 - - - - - - -
28/12:30pm 30.0 ESE 8 14 1014.9 - 0.0 - - - - - - -
28/12:00pm 30.1 SE 9 16 1015.5 - 0.0 - - - - - - -
28/11:30am 28.8 SE 13 19 1015.9 - 0.0 - - - - - - -
28/11:00am 29.0 E 11 17 1016.2 - 0.0 - - - - - - -
28/10:30am 28.0 E 12 17 1016.3 - 0.0 - - - - - - -
28/10:00am 27.6 E 8 13 1016.3 - 0.0 - - - - - - -
28/09:30am 26.2 ESE 9 14 1016.1 - 0.0 - - - - - - -
28/09:00am 24.7 ESE 10 13 1015.6 - 0.0 - - - - - - -
28/08:30am 23.4 ESE 11 16 1015.7 - 0.0 - - - - - - -
28/08:00am 22.0 SE 9 12 1015.5 - 0.0 - - - - - - -
28/07:30am 20.8 SE 8 11 1015.3 - 0.0 - - - - - - -
28/07:00am 20.4 SE 8 10 1014.9 - 0.0 - - - - - - -
28/06:30am 20.4 SE 8 9 1014.5 - 0.0 - - - - - - -
28/06:00am 17.5 SSE 5 7 1014.1 - 0.0 - - - - - - -
28/05:30am 19.5 SSE 5 7 1014.0 - 0.0 - - - - - - -
28/05:00am 21.1 SE 5 6 1013.8 - 0.0 - - - - - - -
28/04:30am 22.8 ESE 9 12 1013.6 - 0.0 - - - - - - -
28/04:00am 23.3 SSE 11 15 1013.3 - 0.0 - - - - - - -
28/03:30am 22.2 SSE 7 11 1013.3 - 0.0 - - - - - - -
28/03:27am 21.0 SSE 7 9 1013.3 - 0.0 - - - - - - -
28/03:00am 15.4 SSE 4 5 1013.1 - 0.0 - - - - - - -
28/02:30am 16.2 SSE 1 4 1013.6 - 0.0 - - - - - - -
28/02:00am 16.1 S 4 6 1013.7 - 0.0 - - - - - - -
28/01:30am 15.8 S 4 7 1013.9 - 0.0 - - - - - - -
28/01:00am 15.8 S 2 4 1014.1 - 0.0 - - - - - - -
28/12:30am 16.4 S 1 3 1014.3 - 0.0 - - - - - - -
28/12:00am 16.2 S 1 4 1014.1 - 0.0 - - - - - - -
 
Date/Time
CST
Temp

°C
Wind Pressure Rain
since 9am
mm
Weather Cloud Vis
km
Sea
Height
m
Swell
Dir
 
Speed
knots
Gust
knots
hPa Trend Height
m
Period
s
Dir
27/11:30pm 16.5 SSW 4 5 1014.2 - 0.0 - - - - - - -
27/11:00pm 17.5 S 1 3 1014.2 - 0.0 - - - - - - -
27/10:30pm 18.3 S 1 4 1014.1 - 0.0 - - - - - - -
27/10:00pm 18.5 SSW 1 6 1014.2 - 0.0 - - - - - - -
27/09:30pm 20.0 S 2 4 1014.1 - 0.0 - - - - - - -
27/09:00pm 21.2 SSE 2 4 1013.6 - 0.0 - - - - - - -
27/08:30pm 23.3 S 2 3 1013.5 - 0.0 - - - - - - -
27/08:00pm 24.3 SSW 4 5 1013.3 - 0.0 - - - - - - -
27/07:30pm 25.1 SW 4 6 1012.9 - 0.0 - - - - - - -
27/07:00pm 27.5 SSW 4 6 1012.3 - 0.0 - - - - - - -
27/06:30pm 29.2 NNW 5 6 1011.9 - 0.0 - - - - - - -
27/06:00pm 30.2 NNW 6 8 1011.5 - 0.0 - - - - - - -
27/05:30pm 31.1 NW 6 9 1011.5 - 0.0 - - - - - - -
27/05:00pm 32.1 NNW 5 8 1011.3 - 0.0 - - - - - - -
27/04:30pm 32.0 SE 7 11 1011.3 - 0.0 - - - - - - -
27/04:00pm 32.2 ESE 6 9 1011.4 - 0.0 - - - - - - -
27/03:30pm 32.3 ESE 8 13 1011.5 - 0.0 - - - - - - -
27/03:00pm 32.9 SE 9 15 1011.5 - 0.0 - - - - - - -
27/02:30pm 31.5 SE 7 14 1012.0 - 0.0 - - - - - - -
27/02:00pm 31.9 ESE 11 17 1012.5 - 0.0 - - - - - - -
27/01:30pm 31.4 ENE 8 16 1012.9 - 0.0 - - - - - - -
27/01:00pm 31.3 E 11 16 1013.4 - 0.0 - - - - - - -
27/12:30pm 30.6 ESE 11 16 1014.0 - 0.0 - - - - - - -
27/12:00pm 31.2 E 14 19 1014.5 - 0.0 - - - - - - -
27/11:30am 30.0 E 13 18 1015.0 - 0.0 - - - - - - -
27/11:00am 29.5 E 11 14 1015.3 - 0.0 - - - - - - -
27/10:30am 27.8 E 9 13 1015.7 - 0.0 - - - - - - -
27/10:00am 27.1 ESE 10 13 1015.9 - 0.0 - - - - - - -
27/09:30am 25.7 ESE 10 14 1015.6 - 0.0 - - - - - - -
27/09:00am 24.6 ESE 8 11 1015.3 - 0.0 - - - - - - -
27/08:30am 23.4 SE 7 10 1015.2 - 0.0 - - - - - - -
27/08:00am 22.3 SSE 10 13 1014.7 - 0.0 - - - - - - -

Other Formats:

Comma delimited format used in spreadsheet applications
http://www.bom.gov.au/fwo/IDD60701/IDD60701.95111.axf

JavaScript Object Notation format (JSON) in row-major order
http://www.bom.gov.au/fwo/IDD60701/IDD60701.95111.json